Time;durP1;ratioP1;P1;durP2;ratioP2;P2;SDS_P1;SDS_P2;PMS_P1;PMS_P2;Temp;Humidity;BMP_temperature;BMP_pressure;BME280_temperature;BME280_humidity;BME280_pressure;Samples;Min_cycle;Max_cycle;Signal;HPM_P1;HPM_P2
2020/12/08 00:02:17;;;;;;;8.80;5.05;;;;;;;4.55;48.95;99806.25;5031728;28;20053;-66
2020/12/08 00:04:44;;;;;;;9.82;5.47;;;;;;;4.54;49.09;99803.66;5013619;28;20499;-66
2020/12/08 00:07:11;;;;;;;9.63;5.57;;;;;;;4.53;49.01;99799.22;5012174;28;20052;-66
2020/12/08 00:09:39;;;;;;;8.48;5.43;;;;;;;4.52;49.06;99795.69;5010683;28;20069;-66
2020/12/08 00:12:07;;;;;;;9.40;5.82;;;;;;;4.51;48.87;99793.09;5029430;28;20129;-66
2020/12/08 00:14:34;;;;;;;7.38;4.80;;;;;;;4.49;48.96;99784.22;5031629;28;20127;-66
2020/12/08 00:17:02;;;;;;;8.98;5.38;;;;;;;4.48;49.02;99780.63;5030007;28;20431;-66
2020/12/08 00:19:30;;;;;;;9.25;4.90;;;;;;;4.46;48.93;99783.47;5029509;28;20038;-66
2020/12/08 00:21:59;;;;;;;8.57;4.88;;;;;;;4.46;48.90;99777.19;5030574;28;20041;-66
2020/12/08 00:24:27;;;;;;;8.70;5.20;;;;;;;4.44;48.75;99773.75;5031074;28;20041;-66
2020/12/08 00:26:54;;;;;;;7.68;4.38;;;;;;;4.43;49.00;99781.00;5031353;28;20048;-66
2020/12/08 00:29:22;;;;;;;7.68;4.43;;;;;;;4.43;48.97;99781.00;5030493;28;20052;-66
2020/12/08 00:31:50;;;;;;;8.80;5.22;;;;;;;4.41;49.05;99774.84;5031225;28;20129;-66
2020/12/08 00:34:17;;;;;;;8.60;5.03;;;;;;;4.42;49.26;99771.16;5031066;28;20057;-66
2020/12/08 00:36:45;;;;;;;7.72;4.68;;;;;;;4.42;48.82;99773.00;5031124;28;20087;-66
2020/12/08 00:39:13;;;;;;;8.52;5.10;;;;;;;4.42;49.35;99770.28;5030778;28;20033;-66
2020/12/08 00:41:41;;;;;;;6.78;4.53;;;;;;;4.41;49.21;99769.44;5030880;28;20045;-66
2020/12/08 00:44:08;;;;;;;8.93;5.00;;;;;;;4.41;48.99;99772.13;5031394;28;20046;-66
2020/12/08 00:46:37;;;;;;;8.30;4.88;;;;;;;4.42;48.97;99765.75;5030997;28;20047;-66
2020/12/08 00:49:06;;;;;;;9.68;5.32;;;;;;;4.42;49.11;99773.88;5030345;28;20041;-66
2020/12/08 00:51:33;;;;;;;9.85;5.68;;;;;;;4.41;48.90;99766.72;5018227;28;20055;-66
2020/12/08 00:54:01;;;;;;;9.73;5.75;;;;;;;4.41;49.01;99763.16;5033189;28;20046;-66
2020/12/08 00:56:31;;;;;;;8.57;4.95;;;;;;;4.39;48.98;99771.38;5017232;28;20049;-66
2020/12/08 00:59:00;;;;;;;10.30;5.22;;;;;;;4.39;48.95;99762.41;5016396;28;20053;-66
2020/12/08 01:01:28;;;;;;;7.50;5.10;;;;;;;4.38;48.95;99763.38;5034466;28;20472;-66
2020/12/08 01:03:57;;;;;;;9.27;5.25;;;;;;;4.37;48.71;99767.94;5013626;28;20048;-65
2020/12/08 01:06:26;;;;;;;10.23;5.20;;;;;;;4.35;49.18;99767.22;5004210;28;20049;-66
2020/12/08 01:08:54;;;;;;;8.75;4.93;;;;;;;4.35;48.73;99769.06;5000214;28;20072;-66
2020/12/08 01:11:22;;;;;;;9.30;5.38;;;;;;;4.34;48.87;99764.63;5033035;28;20464;-66
2020/12/08 01:13:50;;;;;;;10.05;5.50;;;;;;;4.32;48.92;99769.28;5049669;28;20060;-66
2020/12/08 01:16:24;;;;;;;9.20;5.32;;;;;;;4.32;48.81;99778.28;5043089;28;20076;-66
2020/12/08 01:18:58;;;;;;;10.40;5.75;;;;;;;4.31;49.15;99773.84;5030794;28;20443;-66
2020/12/08 01:21:26;;;;;;;8.00;5.07;;;;;;;4.31;49.01;99772.97;5013777;28;20489;-66
2020/12/08 01:23:54;;;;;;;9.30;5.35;;;;;;;4.30;48.99;99773.94;5014069;28;20103;-66
2020/12/08 01:26:22;;;;;;;8.10;5.05;;;;;;;4.30;49.14;99777.53;5016687;28;20061;-66
2020/12/08 01:28:51;;;;;;;9.25;5.28;;;;;;;4.30;48.99;99776.66;5049073;28;20033;-65
2020/12/08 01:31:20;;;;;;;11.27;6.07;;;;;;;4.29;49.00;99781.19;5016430;28;20514;-65
2020/12/08 01:33:48;;;;;;;10.23;5.82;;;;;;;4.29;49.12;99778.50;5032201;28;20463;-65
2020/12/08 01:36:18;;;;;;;8.38;5.07;;;;;;;4.31;48.83;99781.09;5014444;28;20448;-66
2020/12/08 01:38:47;;;;;;;8.82;5.20;;;;;;;4.29;49.25;99778.50;5032573;28;20050;-66
2020/12/08 01:41:15;;;;;;;9.68;5.30;;;;;;;4.29;49.06;99781.19;5032589;28;20049;-66
2020/12/08 01:43:47;;;;;;;9.75;5.22;;;;;;;4.30;49.19;99782.94;5048404;28;20485;-66
2020/12/08 01:46:17;;;;;;;9.25;5.25;;;;;;;4.28;49.04;99789.44;5032699;28;20053;-66
2020/12/08 01:48:46;;;;;;;8.68;5.07;;;;;;;4.29;48.94;99783.03;5046992;28;20068;-66
2020/12/08 01:51:13;;;;;;;10.07;6.03;;;;;;;4.29;49.07;99786.63;5051265;28;20052;-66
2020/12/08 01:53:42;;;;;;;8.63;5.63;;;;;;;4.30;49.07;99790.19;5015711;28;20481;-66
2020/12/08 01:56:10;;;;;;;10.40;6.35;;;;;;;4.28;48.72;99793.00;5012872;28;20049;-66
2020/12/08 01:58:37;;;;;;;9.23;5.30;;;;;;;4.27;49.06;99791.31;5040918;28;20049;-66
2020/12/08 02:01:05;;;;;;;9.05;5.63;;;;;;;4.26;48.85;99795.00;5048823;28;20428;-66
2020/12/08 02:03:32;;;;;;;12.02;6.47;;;;;;;4.25;49.15;99792.41;5014483;28;20077;-66
2020/12/08 02:06:03;;;;;;;9.02;5.47;;;;;;;4.24;49.03;99790.66;5015942;28;20207;-66
2020/12/08 02:08:34;;;;;;;11.20;6.35;;;;;;;4.24;49.03;99791.53;5042761;28;20087;-66
2020/12/08 02:11:05;;;;;;;10.15;5.63;;;;;;;4.23;48.98;99794.34;5048613;28;20053;-65
2020/12/08 02:13:33;;;;;;;11.23;6.15;;;;;;;4.22;49.21;99790.78;5018147;28;20052;-65
2020/12/08 02:16:02;;;;;;;10.00;6.13;;;;;;;4.23;49.05;99787.09;5028820;28;20057;-66
2020/12/08 02:18:29;;;;;;;9.48;5.53;;;;;;;4.23;49.13;99795.22;5039155;28;20033;-66
2020/12/08 02:20:59;;;;;;;10.13;6.32;;;;;;;4.24;49.13;99791.53;5032484;28;20094;-66
2020/12/08 02:23:32;;;;;;;10.18;6.40;;;;;;;4.24;49.24;99796.09;5031567;28;20409;-66
2020/12/08 02:26:03;;;;;;;10.18;6.22;;;;;;;4.26;49.25;99786.00;5032047;28;20042;-66
2020/12/08 02:28:34;;;;;;;10.00;5.57;;;;;;;4.26;49.29;99778.75;5015347;28;20034;-66
2020/12/08 02:31:06;;;;;;;;;;;;;;;4.05;49.68;99780.38;5016729;28;20507;-65
2020/12/08 02:33:34;;;;;;;10.60;5.72;;;;;;;4.23;49.54;99781.69;5015025;28;19925;-66
2020/12/08 02:36:06;;;;;;;10.27;6.20;;;;;;;4.28;49.37;99778.59;5015619;28;20072;-66
2020/12/08 02:38:34;;;;;;;9.77;6.22;;;;;;;4.27;49.08;99777.78;5032701;28;20107;-66
2020/12/08 02:41:02;;;;;;;11.23;6.43;;;;;;;4.27;49.15;99776.91;5032745;28;20040;-66
2020/12/08 02:43:29;;;;;;;9.85;5.93;;;;;;;4.27;49.08;99779.63;5042542;28;20041;-66
2020/12/08 02:46:00;;;;;;;10.75;6.07;;;;;;;4.26;48.85;99775.19;5032654;28;20037;-66
2020/12/08 02:48:27;;;;;;;10.07;5.78;;;;;;;4.26;49.22;99783.31;5031484;28;20144;-66
2020/12/08 02:51:03;;;;;;;10.20;5.70;;;;;;;4.24;49.23;99782.56;5031487;28;20125;-66
2020/12/08 02:53:31;;;;;;;9.25;5.55;;;;;;;4.25;49.17;99784.28;5025209;28;20148;-66
2020/12/08 02:56:00;;;;;;;9.98;6.18;;;;;;;4.24;49.21;99787.97;5014082;28;20124;-66
2020/12/08 02:58:29;;;;;;;11.60;7.20;;;;;;;4.23;49.30;99795.22;5014552;28;20073;-66
2020/12/08 03:00:57;;;;;;;11.43;6.72;;;;;;;4.24;49.05;99793.38;5047355;28;20049;-66
2020/12/08 03:03:24;;;;;;;11.27;6.28;;;;;;;4.24;49.39;99782.56;5047439;28;20042;-66
2020/12/08 03:05:52;;;;;;;10.95;6.45;;;;;;;4.24;49.20;99791.53;5014494;28;20049;-66
2020/12/08 03:08:20;;;;;;;11.93;6.72;;;;;;;4.25;49.32;99800.53;4998908;28;20045;-67
2020/12/08 03:10:50;;;;;;;11.88;7.22;;;;;;;4.26;49.64;99797.69;5028514;28;20386;-67
2020/12/08 03:13:19;;;;;;;11.48;6.38;;;;;;;4.26;49.57;99791.41;4996550;28;20049;-67
2020/12/08 03:15:51;;;;;;;10.98;6.22;;;;;;;4.28;49.41;99797.56;5012550;28;20045;-67
2020/12/08 03:18:18;;;;;;;11.75;7.22;;;;;;;4.28;49.58;99793.00;5042560;28;20096;-67
2020/12/08 03:20:46;;;;;;;11.48;6.80;;;;;;;4.28;49.52;99790.31;5031524;28;20112;-67
2020/12/08 03:23:14;;;;;;;10.98;6.70;;;;;;;4.29;49.29;99789.31;5028425;28;20064;-67
2020/12/08 03:25:43;;;;;;;13.32;6.85;;;;;;;4.30;49.31;99790.19;5030574;28;20091;-67
2020/12/08 03:28:17;;;;;;;11.20;6.78;;;;;;;4.31;49.38;99790.06;5014284;28;20064;-67
2020/12/08 03:30:47;;;;;;;11.02;6.57;;;;;;;4.31;49.41;99783.78;5024483;28;20041;-67
2020/12/08 03:33:15;;;;;;;10.73;6.78;;;;;;;4.33;49.43;99784.56;5030846;28;20048;-67
2020/12/08 03:35:42;;;;;;;11.75;7.03;;;;;;;4.35;49.72;99793.41;5020938;28;20037;-66
2020/12/08 03:38:11;;;;;;;12.13;7.40;;;;;;;4.35;49.76;99782.59;5031195;28;20071;-67
2020/12/08 03:40:40;;;;;;;11.35;6.53;;;;;;;4.38;49.73;99787.75;5007594;28;20053;-67
2020/12/08 03:43:15;;;;;;;11.32;7.38;;;;;;;4.39;49.72;99786.78;5030994;28;20041;-67
2020/12/08 03:45:43;;;;;;;12.50;7.25;;;;;;;4.41;49.51;99788.38;5024105;28;20048;-67
2020/12/08 03:48:12;;;;;;;11.23;6.63;;;;;;;4.42;49.57;99790.13;5021315;28;20043;-67
2020/12/08 03:50:45;;;;;;;10.95;6.50;;;;;;;4.42;49.79;99786.53;5014095;28;20762;-66
2020/12/08 03:53:19;;;;;;;10.98;6.80;;;;;;;4.43;49.47;99790.97;5014289;28;20048;-67
2020/12/08 03:55:57;;;;;;;10.27;6.47;;;;;;;4.45;49.63;99792.56;5015760;28;20042;-67
2020/12/08 03:58:24;;;;;;;10.32;6.00;;;;;;;4.45;49.38;99791.69;5014343;28;20542;-66
2020/12/08 04:00:53;;;;;;;11.05;6.43;;;;;;;4.48;49.68;99794.19;5019849;28;20048;-66
2020/12/08 04:03:22;;;;;;;10.18;6.40;;;;;;;4.48;49.69;99793.31;5006348;28;20443;-66
2020/12/08 04:05:51;;;;;;;10.93;6.57;;;;;;;4.50;49.79;99794.06;5037703;28;20069;-66
2020/12/08 04:08:19;;;;;;;11.35;6.80;;;;;;;4.50;49.50;99788.66;5014404;28;20087;-67
2020/12/08 04:10:52;;;;;;;12.25;7.18;;;;;;;4.51;49.80;99798.50;5019696;28;20049;-67
2020/12/08 04:13:31;;;;;;;10.98;6.28;;;;;;;4.53;49.77;99800.09;5029516;28;20177;-67
2020/12/08 04:16:01;;;;;;;11.80;7.30;;;;;;;4.56;49.70;99796.28;5031553;28;20041;-67
2020/12/08 04:18:39;;;;;;;12.98;7.38;;;;;;;4.55;49.43;99805.38;5016366;28;20038;-67
2020/12/08 04:21:11;;;;;;;10.88;7.15;;;;;;;4.57;49.42;99806.16;4991935;28;20058;-67
2020/12/08 04:24:00;;;;;;;10.23;6.55;;;;;;;4.56;49.57;99807.13;5021877;28;20085;-67
2020/12/08 04:26:33;;;;;;;9.55;5.80;;;;;;;4.57;49.90;99800.72;5033570;28;20069;-67
2020/12/08 04:29:26;;;;;;;11.95;7.13;;;;;;;4.56;49.52;99812.53;5020666;28;20045;-67
2020/12/08 04:32:15;;;;;;;11.10;6.78;;;;;;;4.57;49.64;99804.31;5027675;28;20088;-67
2020/12/08 04:35:02;;;;;;;11.27;6.68;;;;;;;4.56;49.70;99809.84;5035408;28;20041;-67
2020/12/08 04:37:50;;;;;;;12.43;7.13;;;;;;;4.57;49.59;99800.72;5036126;28;20095;-67
2020/12/08 04:40:39;;;;;;;12.20;7.00;;;;;;;4.57;49.36;99807.00;5035158;28;20053;-67
2020/12/08 04:43:26;;;;;;;11.25;6.55;;;;;;;4.57;49.78;99806.16;5035876;28;20046;-67
2020/12/08 04:46:14;;;;;;;13.43;6.75;;;;;;;4.58;49.75;99805.16;5039456;28;20564;-67
2020/12/08 04:49:02;;;;;;;11.18;6.78;;;;;;;4.58;49.60;99811.44;5024436;28;21058;-67
2020/12/08 04:51:50;;;;;;;14.02;7.07;;;;;;;4.57;49.71;99803.44;5035799;28;20045;-67
2020/12/08 04:54:37;;;;;;;11.82;6.72;;;;;;;4.58;49.66;99810.59;5035912;28;20049;-67
2020/12/08 04:57:26;;;;;;;10.38;6.35;;;;;;;4.58;49.67;99807.88;5036070;28;20072;-67
2020/12/08 05:00:14;;;;;;;11.20;6.80;;;;;;;4.59;49.90;99813.19;5033916;28;20041;-67
2020/12/08 05:03:03;;;;;;;11.50;6.38;;;;;;;4.59;49.73;99813.19;5034765;28;20505;-67
2020/12/08 05:05:38;;;;;;;13.75;7.40;;;;;;;4.63;49.90;99814.66;5016052;28;20042;-67
2020/12/08 05:08:10;;;;;;;14.18;8.13;;;;;;;4.64;50.00;99819.09;5035218;28;20049;-67
2020/12/08 05:11:07;;;;;;;12.93;7.65;;;;;;;4.65;49.79;99819.94;5017628;28;20154;-67
2020/12/08 05:14:00;;;;;;;12.98;7.63;;;;;;;4.65;49.73;99826.22;5030820;28;20112;-66
2020/12/08 05:16:47;;;;;;;16.10;7.75;;;;;;;4.64;49.91;99823.63;5030510;28;20061;-66
2020/12/08 05:19:34;;;;;;;11.82;6.57;;;;;;;4.66;49.90;99819.84;5034254;28;20136;-65
2020/12/08 05:22:23;;;;;;;13.52;7.85;;;;;;;4.67;49.74;99813.44;5034281;28;20132;-66
2020/12/08 05:25:11;;;;;;;14.85;7.53;;;;;;;4.69;49.74;99816.00;5033910;28;20052;-66
2020/12/08 05:27:39;;;;;;;13.95;7.95;;;;;;;4.70;49.54;99817.72;5033585;28;20128;-65
2020/12/08 05:30:09;;;;;;;14.05;7.80;;;;;;;4.70;49.68;99821.31;5034440;28;20091;-66
2020/12/08 05:32:37;;;;;;;12.98;7.10;;;;;;;4.71;49.66;99825.75;5034541;28;20112;-66
2020/12/08 05:35:07;;;;;;;12.02;7.10;;;;;;;4.73;49.79;99829.19;5033668;28;20378;-67
2020/12/08 05:37:37;;;;;;;13.30;7.50;;;;;;;4.74;49.98;99830.94;5033654;28;20052;-66
2020/12/08 05:40:08;;;;;;;12.45;7.43;;;;;;;4.74;49.91;99827.34;5016692;28;20419;-66
2020/12/08 05:42:38;;;;;;;14.15;8.07;;;;;;;4.76;50.05;99828.09;5034846;28;20580;-66
2020/12/08 05:45:08;;;;;;;13.45;7.85;;;;;;;4.77;49.84;99833.38;5035063;28;20041;-66
2020/12/08 05:47:50;;;;;;;13.25;7.72;;;;;;;4.79;49.59;99831.41;5032849;28;20048;-66
2020/12/08 05:50:20;;;;;;;12.85;7.57;;;;;;;4.76;49.70;99830.81;5027066;28;20056;-66
2020/12/08 05:52:49;;;;;;;15.38;8.13;;;;;;;4.78;49.44;99834.25;5026298;28;20487;-66
2020/12/08 05:55:18;;;;;;;15.10;8.10;;;;;;;4.76;49.53;99836.25;5026705;28;20377;-66
2020/12/08 05:57:46;;;;;;;12.82;7.80;;;;;;;4.76;49.65;99836.25;5007686;28;20037;-66
2020/12/08 06:00:23;;;;;;;13.88;7.32;;;;;;;4.79;49.32;99838.69;5036164;28;20560;-67
2020/12/08 06:02:51;;;;;;;12.55;7.45;;;;;;;4.74;49.31;99840.91;5018337;28;20045;-65
2020/12/08 06:05:29;;;;;;;11.90;7.55;;;;;;;4.77;49.15;99835.25;5032732;28;20030;-67
2020/12/08 06:07:58;;;;;;;12.82;7.13;;;;;;;4.74;49.37;99830.94;5031518;28;20041;-66
2020/12/08 06:10:25;;;;;;;13.15;7.78;;;;;;;4.73;49.58;99831.03;5028469;28;20046;-66
2020/12/08 06:12:57;;;;;;;11.02;6.97;;;;;;;4.75;49.24;99839.94;5028877;28;20050;-67
2020/12/08 06:15:27;;;;;;;10.98;6.50;;;;;;;4.71;49.52;99835.72;5016615;28;20420;-66
2020/12/08 06:17:55;;;;;;;12.30;7.00;;;;;;;4.73;49.30;99836.47;5030782;28;20095;-66
2020/12/08 06:20:22;;;;;;;11.63;6.35;;;;;;;4.73;49.33;99839.16;5026667;28;20064;-66
2020/12/08 06:22:54;;;;;;;10.68;6.65;;;;;;;4.73;49.03;99842.75;5025818;28;20042;-66
2020/12/08 06:25:22;;;;;;;9.32;5.95;;;;;;;4.72;49.06;99849.16;5025005;28;20117;-67
2020/12/08 06:27:50;;;;;;;12.13;6.90;;;;;;;4.73;49.11;99850.00;5016939;28;20743;-66
2020/12/08 06:30:21;;;;;;;12.38;7.38;;;;;;;4.75;49.16;99859.75;5029772;28;20034;-66
2020/12/08 06:32:49;;;;;;;11.20;6.93;;;;;;;4.75;49.06;99864.31;5026523;28;20400;-66
2020/12/08 06:35:18;;;;;;;13.95;7.57;;;;;;;4.76;49.09;99866.91;5025198;28;20038;-66
2020/12/08 06:37:48;;;;;;;14.57;8.07;;;;;;;4.78;49.31;99869.47;5016939;28;20045;-66
2020/12/08 06:40:17;;;;;;;13.40;8.05;;;;;;;4.79;49.33;99869.34;5026256;28;20641;-66
2020/12/08 06:42:45;;;;;;;12.55;6.97;;;;;;;4.80;49.22;99865.66;5025933;28;20034;-66
2020/12/08 06:45:15;;;;;;;12.68;8.07;;;;;;;4.81;49.11;99871.94;5031849;28;20044;-67
2020/12/08 06:47:43;;;;;;;11.60;7.13;;;;;;;4.84;49.21;99874.44;5035020;28;20048;-67
2020/12/08 06:50:22;;;;;;;12.68;7.72;;;;;;;4.85;48.95;99863.44;5024832;28;20049;-67
2020/12/08 06:52:51;;;;;;;12.73;7.20;;;;;;;4.84;49.22;99867.16;5029920;28;20045;-67
2020/12/08 06:55:18;;;;;;;11.35;7.30;;;;;;;4.84;49.04;99875.28;5023901;28;20088;-66
2020/12/08 06:57:46;;;;;;;11.43;7.22;;;;;;;4.86;49.12;99872.44;5015964;28;20049;-66
2020/12/08 07:00:14;;;;;;;13.48;8.13;;;;;;;4.87;49.04;99873.31;5029455;28;20049;-66
2020/12/08 07:02:48;;;;;;;12.80;6.63;;;;;;;4.88;49.06;99877.75;5029803;28;20384;-66
2020/12/08 07:05:21;;;;;;;10.38;6.40;;;;;;;4.89;48.74;99876.75;5025862;28;20041;-66
2020/12/08 07:07:50;;;;;;;9.05;5.38;;;;;;;4.88;48.80;99878.59;5027594;28;20100;-65
2020/12/08 07:10:18;;;;;;;7.88;5.35;;;;;;;4.88;48.67;99877.75;5029129;28;20037;-66
2020/12/08 07:12:49;;;;;;;8.68;5.55;;;;;;;4.90;48.63;99883.91;5038426;28;20041;-67
2020/12/08 07:15:21;;;;;;;8.88;5.70;;;;;;;4.90;48.43;99887.50;5029449;28;20444;-67
2020/12/08 07:17:58;;;;;;;9.43;5.63;;;;;;;4.92;48.30;99896.38;5016802;28;20451;-67
2020/12/08 07:20:26;;;;;;;6.93;4.57;;;;;;;4.90;48.68;99897.47;5026116;28;20492;-67
2020/12/08 07:22:54;;;;;;;8.57;5.18;;;;;;;4.91;48.70;99888.34;5025256;28;20048;-67
2020/12/08 07:25:23;;;;;;;9.48;5.30;;;;;;;4.92;48.83;99892.78;4994987;28;20092;-66
2020/12/08 07:27:53;;;;;;;8.57;5.38;;;;;;;4.93;48.77;99895.41;5018732;28;20049;-67
2020/12/08 07:30:23;;;;;;;8.02;4.95;;;;;;;4.94;48.63;99894.38;5031722;28;20050;-67
2020/12/08 07:32:51;;;;;;;8.57;5.20;;;;;;;4.93;48.71;99895.41;5032469;28;20504;-67
2020/12/08 07:35:23;;;;;;;9.45;5.88;;;;;;;4.95;48.49;99906.94;5031324;28;20033;-67
2020/12/08 07:37:52;;;;;;;8.93;5.20;;;;;;;4.96;48.41;99902.41;5031910;28;20457;-68
2020/12/08 07:40:20;;;;;;;7.65;4.88;;;;;;;4.96;48.72;99911.41;5031466;28;20049;-67
2020/12/08 07:42:50;;;;;;;7.70;4.65;;;;;;;4.98;48.48;99914.00;5032187;28;20045;-66
2020/12/08 07:45:19;;;;;;;9.75;5.35;;;;;;;5.00;48.49;99912.03;5027598;28;20042;-66
2020/12/08 07:47:53;;;;;;;9.48;5.47;;;;;;;5.02;48.53;99921.75;5032316;28;20126;-66
2020/12/08 07:50:22;;;;;;;9.52;5.85;;;;;;;5.00;48.73;99922.88;5023465;28;20041;-66
2020/12/08 07:52:57;;;;;;;10.13;5.88;;;;;;;5.04;48.21;99924.34;5032732;28;20169;-66
2020/12/08 07:55:25;;;;;;;11.05;6.80;;;;;;;5.02;48.60;99916.31;5019365;28;20129;-67
2020/12/08 07:57:52;;;;;;;10.45;6.03;;;;;;;5.04;48.69;99924.34;5013348;28;20052;-67
2020/12/08 08:00:21;;;;;;;11.60;6.63;;;;;;;5.05;48.65;99924.22;5029701;28;20426;-67
2020/12/08 08:02:50;;;;;;;9.80;6.13;;;;;;;5.06;48.66;99925.09;5031791;28;20045;-67
2020/12/08 08:05:17;;;;;;;11.45;5.95;;;;;;;5.06;48.86;99928.66;5031391;28;20045;-68
2020/12/08 08:07:45;;;;;;;11.52;6.32;;;;;;;5.07;48.75;99930.41;5027943;28;20052;-67
2020/12/08 08:10:12;;;;;;;9.23;5.75;;;;;;;5.09;48.69;99935.72;5024847;28;20239;-67
2020/12/08 08:12:40;;;;;;;11.77;7.32;;;;;;;5.09;48.64;99938.41;5030768;28;20518;-67
2020/12/08 08:15:08;;;;;;;11.90;6.55;;;;;;;5.10;48.53;99932.84;5023653;28;20445;-66
2020/12/08 08:17:36;;;;;;;10.90;6.13;;;;;;;5.11;48.75;99937.28;5030067;28;20073;-65
2020/12/08 08:20:06;;;;;;;10.73;5.63;;;;;;;5.12;48.72;99940.88;5029631;28;20041;-66
2020/12/08 08:22:34;;;;;;;10.90;6.60;;;;;;;5.12;48.78;99930.91;5017703;28;20069;-66
2020/12/08 08:25:02;;;;;;;10.85;6.30;;;;;;;5.13;48.96;99929.03;5025105;28;20037;-66
2020/12/08 08:27:30;;;;;;;9.15;5.90;;;;;;;5.14;48.79;99930.78;5028524;28;20045;-66
2020/12/08 08:29:57;;;;;;;11.10;6.70;;;;;;;5.14;48.91;99931.66;5016939;28;20508;-66
2020/12/08 08:32:24;;;;;;;10.90;6.93;;;;;;;5.14;48.82;99934.34;4995732;28;20075;-67
2020/12/08 08:34:52;;;;;;;10.90;6.45;;;;;;;5.15;48.68;99927.97;5028805;28;20041;-66
2020/12/08 08:37:20;;;;;;;11.85;7.60;;;;;;;5.14;48.69;99928.94;5019278;28;20045;-66
2020/12/08 08:39:48;;;;;;;11.70;7.10;;;;;;;5.15;48.69;99932.50;5028955;28;20370;-66
2020/12/08 08:42:15;;;;;;;9.95;6.18;;;;;;;5.14;48.58;99937.06;5030047;28;20099;-67
2020/12/08 08:44:43;;;;;;;11.75;6.70;;;;;;;5.16;48.44;99934.25;5024657;28;20037;-67
2020/12/08 08:47:11;;;;;;;12.07;7.47;;;;;;;5.15;48.58;99927.09;5030208;28;20042;-67
2020/12/08 08:49:39;;;;;;;11.73;7.32;;;;;;;5.16;48.73;99936.94;5012488;28;20420;-67
2020/12/08 08:52:08;;;;;;;11.27;7.05;;;;;;;5.18;48.51;99940.41;5029398;28;20378;-67
2020/12/08 08:54:35;;;;;;;10.45;6.90;;;;;;;5.18;48.60;99943.13;5026491;28;20042;-68
2020/12/08 08:57:03;;;;;;;11.82;7.38;;;;;;;5.18;48.45;99943.13;5005998;28;20092;-68
2020/12/08 08:59:30;;;;;;;9.10;5.63;;;;;;;5.18;48.48;99941.25;5029513;28;20457;-67
2020/12/08 09:01:58;;;;;;;10.60;6.60;;;;;;;5.18;48.18;99949.38;5009592;28;20045;-67
2020/12/08 09:04:26;;;;;;;11.68;6.65;;;;;;;5.19;48.59;99948.41;5030005;28;21023;-67
2020/12/08 09:06:53;;;;;;;11.32;6.60;;;;;;;5.19;48.72;99945.69;5007121;28;20120;-67
2020/12/08 09:09:22;;;;;;;10.27;6.57;;;;;;;5.21;48.65;99946.44;5028518;28;20049;-67
2020/12/08 09:11:50;;;;;;;10.70;6.60;;;;;;;5.21;48.68;99949.16;5032082;28;20045;-67
2020/12/08 09:14:19;;;;;;;10.68;6.43;;;;;;;5.21;48.51;99948.28;5026748;28;20048;-67
2020/12/08 09:16:46;;;;;;;10.38;6.72;;;;;;;5.22;48.60;99950.88;5029754;28;20045;-67
2020/12/08 09:19:14;;;;;;;10.35;6.15;;;;;;;5.23;48.57;99957.16;5029557;28;20107;-67
2020/12/08 09:21:41;;;;;;;10.93;6.50;;;;;;;5.25;48.64;99957.06;5028847;28;20045;-67
2020/12/08 09:24:09;;;;;;;10.90;6.72;;;;;;;5.25;48.51;99959.78;5021526;28;20048;-67
2020/12/08 09:26:41;;;;;;;10.65;7.00;;;;;;;5.27;48.46;99958.66;5033466;28;20060;-67
2020/12/08 09:29:08;;;;;;;11.02;6.60;;;;;;;5.27;48.65;99960.50;5007279;28;20670;-67
2020/12/08 09:31:36;;;;;;;10.18;6.45;;;;;;;5.27;48.91;99963.19;5039212;28;20123;-67
2020/12/08 09:34:03;;;;;;;10.85;6.82;;;;;;;5.28;48.57;99954.94;5034315;28;20045;-68
2020/12/08 09:36:31;;;;;;;10.30;6.32;;;;;;;5.28;48.65;99957.66;5014726;28;20156;-66
2020/12/08 09:38:59;;;;;;;9.20;6.07;;;;;;;5.31;48.61;99965.56;5024977;28;20404;-67
2020/12/08 09:41:27;;;;;;;11.27;6.50;;;;;;;5.32;48.58;99971.84;5031962;28;20042;-67
2020/12/08 09:43:56;;;;;;;9.68;6.15;;;;;;;5.34;48.69;99969.91;5030517;28;20129;-67
2020/12/08 09:46:24;;;;;;;11.15;6.47;;;;;;;5.34;48.67;99969.91;5035260;28;20041;-67
2020/12/08 09:48:52;;;;;;;11.27;6.57;;;;;;;5.35;48.49;99969.75;5033271;28;20091;-66
2020/12/08 09:51:20;;;;;;;10.95;6.75;;;;;;;5.37;48.61;99965.06;5032358;28;20072;-65
2020/12/08 09:53:48;;;;;;;11.48;6.35;;;;;;;5.38;48.41;99963.22;5032027;28;20047;-67
2020/12/08 09:56:18;;;;;;;10.30;6.25;;;;;;;5.38;48.41;99958.66;5029769;28;20040;-65
2020/12/08 09:58:46;;;;;;;12.18;7.43;;;;;;;5.38;48.61;99958.66;5022195;28;20046;-66
2020/12/08 10:01:14;;;;;;;11.05;6.25;;;;;;;5.40;48.64;99959.41;5030340;28;20081;-66
2020/12/08 10:03:42;;;;;;;9.63;6.55;;;;;;;5.41;48.59;99960.28;5017772;28;20076;-67
2020/12/08 10:06:14;;;;;;;11.00;6.47;;;;;;;5.42;48.41;99957.47;5032092;28;20470;-65
2020/12/08 10:08:41;;;;;;;10.68;7.07;;;;;;;5.42;48.71;99953.88;5034135;28;20527;-65
2020/12/08 10:11:09;;;;;;;11.23;6.85;;;;;;;5.43;48.72;99963.75;5031997;28;20072;-67
2020/12/08 10:13:51;;;;;;;12.07;7.55;;;;;;;5.43;48.49;99963.75;5031443;28;20099;-67
2020/12/08 10:16:21;;;;;;;11.93;7.38;;;;;;;5.44;48.46;99969.03;5032870;28;20042;-65
2020/12/08 10:18:49;;;;;;;10.80;6.43;;;;;;;5.45;48.52;99967.19;5030884;28;20053;-65
2020/12/08 10:21:19;;;;;;;12.32;7.45;;;;;;;5.47;48.36;99968.81;5030137;28;20404;-66
2020/12/08 10:23:48;;;;;;;9.18;5.80;;;;;;;5.48;48.63;99964.28;5030673;28;20411;-65
2020/12/08 10:26:16;;;;;;;11.80;6.60;;;;;;;5.48;48.22;99966.97;5031936;28;20039;-66
2020/12/08 10:28:43;;;;;;;11.63;7.22;;;;;;;5.49;48.51;99961.44;5025492;28;20393;-67
2020/12/08 10:31:12;;;;;;;11.18;7.35;;;;;;;5.50;48.49;99959.59;5029839;28;20041;-66
2020/12/08 10:33:42;;;;;;;10.93;6.63;;;;;;;5.51;48.42;99956.72;5011956;28;20036;-66
2020/12/08 10:36:11;;;;;;;11.43;6.28;;;;;;;5.52;48.40;99966.59;5031343;28;20481;-66
2020/12/08 10:38:39;;;;;;;10.32;6.20;;;;;;;5.53;48.32;99962.03;5031042;28;20115;-67
2020/12/08 10:41:07;;;;;;;10.80;6.70;;;;;;;5.53;48.60;99957.47;5027754;28;20049;-66
2020/12/08 10:43:35;;;;;;;9.60;6.50;;;;;;;5.56;48.52;99968.09;5027959;28;20046;-66
2020/12/08 10:46:04;;;;;;;9.95;6.50;;;;;;;5.58;48.46;99965.28;5031643;28;20055;-65
2020/12/08 10:48:32;;;;;;;8.73;5.63;;;;;;;5.58;48.41;99955.28;5025493;28;20480;-65
2020/12/08 10:51:01;;;;;;;12.52;6.55;;;;;;;5.62;48.35;99957.72;5031231;28;20045;-65
2020/12/08 10:53:28;;;;;;;9.98;6.07;;;;;;;5.63;48.28;99963.03;5027381;28;20048;-66
2020/12/08 10:55:56;;;;;;;10.80;6.25;;;;;;;5.64;48.40;99953.91;5031032;28;20480;-67
2020/12/08 10:58:23;;;;;;;11.07;5.82;;;;;;;5.68;48.28;99954.56;5032324;28;20045;-67
2020/12/08 11:00:52;;;;;;;9.90;6.35;;;;;;;5.70;48.31;99947.13;5030471;28;20049;-67
2020/12/08 11:03:20;;;;;;;8.57;5.07;;;;;;;5.71;48.23;99949.72;5028271;28;20041;-67
2020/12/08 11:05:48;;;;;;;9.02;5.60;;;;;;;5.73;48.22;99944.19;5031886;28;20436;-66
2020/12/08 11:08:17;;;;;;;8.70;5.25;;;;;;;5.76;47.99;99942.06;5027409;28;20100;-67
2020/12/08 11:10:45;;;;;;;9.38;5.88;;;;;;;5.76;48.01;99949.38;5010713;28;20041;-66
2020/12/08 11:13:15;;;;;;;9.05;5.82;;;;;;;5.77;47.85;99945.63;5022600;28;20052;-67
2020/12/08 11:15:59;;;;;;;10.15;5.85;;;;;;;5.77;47.94;99938.38;5030862;28;20080;-69
2020/12/08 11:18:27;;;;;;;8.98;5.38;;;;;;;5.82;47.89;99940.72;5027550;28;20103;-66
2020/12/08 11:20:54;;;;;;;8.57;5.78;;;;;;;5.81;47.82;99931.72;5028497;28;20045;-65
2020/12/08 11:23:22;;;;;;;9.68;5.35;;;;;;;5.84;47.51;99934.16;5029426;28;20049;-65
2020/12/08 11:25:50;;;;;;;8.50;5.13;;;;;;;5.84;47.77;99928.72;5010954;28;20627;-65
2020/12/08 11:28:18;;;;;;;8.73;5.72;;;;;;;5.84;47.52;99931.44;5011656;28;20506;-65
2020/12/08 11:30:45;;;;;;;7.85;5.20;;;;;;;5.85;47.54;99932.31;5010469;28;20445;-66
2020/12/08 11:33:14;;;;;;;8.73;5.68;;;;;;;5.86;47.47;99925.91;5025697;28;20079;-66
2020/12/08 11:35:41;;;;;;;8.80;4.70;;;;;;;5.85;47.42;99927.75;5026675;28;20034;-66
2020/12/08 11:38:08;;;;;;;7.38;4.97;;;;;;;5.86;47.23;99931.31;5029501;28;20563;-66
2020/12/08 11:40:37;;;;;;;7.88;5.03;;;;;;;5.88;47.25;99932.06;5026923;28;20065;-66
2020/12/08 11:43:04;;;;;;;7.97;4.75;;;;;;;5.87;47.11;99933.91;5033283;28;20063;-66
2020/12/08 11:45:32;;;;;;;7.43;4.72;;;;;;;5.89;47.07;99933.81;5014055;28;20037;-65
2020/12/08 11:48:12;;;;;;;8.23;4.97;;;;;;;5.88;46.83;99927.50;5040802;28;20091;-66
2020/12/08 11:50:39;;;;;;;8.70;4.97;;;;;;;5.89;46.91;99933.81;5024390;28;20049;-66
2020/12/08 11:53:07;;;;;;;9.00;5.00;;;;;;;5.89;46.64;99936.53;5031766;28;20045;-66